Puropanmaru No.3 — JD3322 — position and weather

sailwx.info

Track history (hours):
 
Tides and Currents Weather Stations Pressure Air Temp Water Temp Dewpoint Dewpoint Depression Visibility Wind Speed Wind Dir Waves Ship Positions

Puropanmaru No.3

Last reported at 2017-Mar-27 06:33 UTC. Time now 2017-Mar-28 12:04 UTC.
Position N 34°09' E 134°59'.

Length 68 m; draft 4.5 m.

Type: Tanker. MMSI: 431003365.

Date/timePositionNaut miles runAvg speedWind from/ knotsBaromVisibWave heightAir tempDewpointWater temp
2017-Mar-27 06:33N 34°09' E 134°59'1713.0
2017-Mar-27 05:12N 34°25' E 135°07'1013.4
2017-Mar-27 04:28N 34°31' E 135°17'6 1.0
2017-Mar-26 22:32N 34°33' E 135°23'3 2.8
2017-Mar-26 21:28N 34°32' E 135°20'0 0.0
2017-Mar-26 19:28N 34°32' E 135°20'0 0.0
2017-Mar-26 16:22N 34°32' E 135°20'0 0.0
2017-Mar-26 15:28N 34°32' E 135°20'0 0.0
2017-Mar-26 14:28N 34°32' E 135°20'0 0.0
2017-Mar-26 13:28N 34°32' E 135°20'0 0.0
2017-Mar-26 12:28N 34°32' E 135°20'0 0.0
2017-Mar-26 11:29N 34°32' E 135°20'1010.9
2017-Mar-26 10:33N 34°26' E 135°10'1412.6
2017-Mar-26 09:24N 34°15' E 134°59'24310.1
2017-Mar-25 09:19N 35°14' E 139°46'1012.8
2017-Mar-25 08:34N 35°23' E 139°42'1412.6
2017-Mar-25 07:27N 35°31' E 139°56'1 0.2
2017-Mar-25 02:30N 35°32' E 139°56'9 9.3
2017-Mar-25 01:33N 35°31' E 139°45'0 0.0
2017-Mar-25 00:33N 35°31' E 139°45'0 0.0
2017-Mar-24 23:33N 35°31' E 139°45'1 0.8
2017-Mar-24 22:34N 35°30' E 139°45'4 4.0
2017-Mar-24 21:33N 35°31' E 139°50'0 0.0
2017-Mar-24 20:31N 35°31' E 139°50'0 0.0
2017-Mar-24 19:28N 35°31' E 139°50'0 0.1
2017-Mar-24 18:31N 35°31' E 139°50'0 0.1
2017-Mar-24 17:33N 35°31' E 139°50'0 0.0
2017-Mar-24 16:28N 35°31' E 139°50'0 0.0
2017-Mar-24 15:34N 35°31' E 139°50'0 0.0
2017-Mar-24 14:28N 35°31' E 139°50'0 0.0
2017-Mar-24 13:34N 35°31' E 139°50'0 0.0
2017-Mar-24 12:27N 35°31' E 139°50'0 0.0
2017-Mar-24 11:33N 35°31' E 139°50'0 0.0
2017-Mar-24 10:31N 35°31' E 139°50'0 0.0
2017-Mar-24 09:33N 35°31' E 139°50'0 0.0
2017-Mar-24 08:33N 35°31' E 139°50'9 8.7
2017-Mar-24 07:33N 35°24' E 139°43'3 3.5
2017-Mar-24 06:33N 35°25' E 139°39'0 0.0
2017-Mar-24 05:33N 35°25' E 139°39'0 0.0
2017-Mar-24 04:33N 35°25' E 139°39'0 0.0
2017-Mar-24 03:33N 35°25' E 139°39'1 0.9
2017-Mar-24 02:33N 35°24' E 139°40'9 8.7
2017-Mar-24 01:34N 35°30' E 139°47'2 2.1
2017-Mar-24 00:33N 35°31' E 139°45'0 0.0
2017-Mar-23 23:33N 35°31' E 139°45'0 0.2
2017-Mar-23 22:33N 35°31' E 139°45'4 4.2
2017-Mar-23 21:32N 35°30' E 139°50'0 0.0
2017-Mar-23 20:32N 35°30' E 139°50'0 0.0
2017-Mar-23 19:32N 35°30' E 139°50'0 0.0
2017-Mar-23 18:32N 35°30' E 139°50'0 0.0
2017-Mar-23 17:32N 35°31' E 139°50'0 0.0
2017-Mar-23 16:32N 35°30' E 139°50'0 0.0
2017-Mar-23 15:20N 35°30' E 139°50'0 0.0
2017-Mar-23 14:32N 35°30' E 139°50'0 0.0
2017-Mar-23 13:32N 35°30' E 139°50'0 0.0
2017-Mar-23 12:11N 35°31' E 139°50'0 0.0
2017-Mar-23 11:32N 35°31' E 139°50'0 0.0
2017-Mar-23 10:32N 35°31' E 139°50'0 0.0
2017-Mar-23 09:29N 35°31' E 139°50'0 0.0
2017-Mar-23 08:32N 35°31' E 139°50'2 2.1
2017-Mar-23 07:33N 35°29' E 139°49'9 9.1
2017-Mar-23 06:34N 35°25' E 139°39'0 0.0
2017-Mar-23 05:33N 35°25' E 139°39'0 0.0
2017-Mar-23 04:34N 35°25' E 139°39'0 0.0
2017-Mar-23 03:33N 35°25' E 139°39'0 0.0
2017-Mar-23 02:33N 35°25' E 139°39'3 2.5
2017-Mar-23 01:31N 35°22' E 139°40'0 0.1
2017-Mar-23 00:32N 35°22' E 139°40'1010.4
2017-Mar-22 23:33N 35°14' E 139°47'24610.6
2017-Mar-22 00:17N 34°07' E 134°59'28 1.5
2017-Mar-21 05:33N 34°35' E 135°03'221 5.7
2017-Mar-19 14:33N 35°02' E 139°30'1312.9
2017-Mar-19 13:33N 35°08' E 139°43'1211.6
2017-Mar-19 12:33N 35°19' E 139°43'1111.4
2017-Mar-19 11:33N 35°29' E 139°51'6 1.2
2017-Mar-19 06:29N 35°32' E 139°57'1213.0
2017-Mar-19 05:33N 35°24' E 139°46'1211.9
2017-Mar-19 04:33N 35°12' E 139°47'1312.5
2017-Mar-19 03:33N 35°02' E 139°38'  
Track history (hours):
 
Tides and Currents Weather Stations Pressure Air Temp Water Temp Dewpoint Dewpoint Depression Visibility Wind Speed Wind Dir Waves Ship Positions

Puropanmaru No.3

Last reported at 2017-Mar-27 06:33 UTC. Time now 2017-Mar-28 12:04 UTC.
Position N 34°09' E 134°59'.

Length 68 m; draft 4.5 m.

Type: Tanker. MMSI: 431003365.

Date/timePositionNaut miles runAvg speedWind from/ knotsBaromVisibWave heightAir tempDewpointWater temp
2017-Mar-27 06:33N 34°09' E 134°59'1713.0
2017-Mar-27 05:12N 34°25' E 135°07'1013.4
2017-Mar-27 04:28N 34°31' E 135°17'6 1.0
2017-Mar-26 22:32N 34°33' E 135°23'3 2.8
2017-Mar-26 21:28N 34°32' E 135°20'0 0.0
2017-Mar-26 19:28N 34°32' E 135°20'0 0.0
2017-Mar-26 16:22N 34°32' E 135°20'0 0.0
2017-Mar-26 15:28N 34°32' E 135°20'0 0.0
2017-Mar-26 14:28N 34°32' E 135°20'0 0.0
2017-Mar-26 13:28N 34°32' E 135°20'0 0.0
2017-Mar-26 12:28N 34°32' E 135°20'0 0.0
2017-Mar-26 11:29N 34°32' E 135°20'1010.9
2017-Mar-26 10:33N 34°26' E 135°10'1412.6
2017-Mar-26 09:24N 34°15' E 134°59'24310.1
2017-Mar-25 09:19N 35°14' E 139°46'1012.8
2017-Mar-25 08:34N 35°23' E 139°42'1412.6
2017-Mar-25 07:27N 35°31' E 139°56'1 0.2
2017-Mar-25 02:30N 35°32' E 139°56'9 9.3
2017-Mar-25 01:33N 35°31' E 139°45'0 0.0
2017-Mar-25 00:33N 35°31' E 139°45'0 0.0
2017-Mar-24 23:33N 35°31' E 139°45'1 0.8
2017-Mar-24 22:34N 35°30' E 139°45'4 4.0
2017-Mar-24 21:33N 35°31' E 139°50'0 0.0
2017-Mar-24 20:31N 35°31' E 139°50'0 0.0
2017-Mar-24 19:28N 35°31' E 139°50'0 0.1
2017-Mar-24 18:31N 35°31' E 139°50'0 0.1
2017-Mar-24 17:33N 35°31' E 139°50'0 0.0
2017-Mar-24 16:28N 35°31' E 139°50'0 0.0
2017-Mar-24 15:34N 35°31' E 139°50'0 0.0
2017-Mar-24 14:28N 35°31' E 139°50'0 0.0
2017-Mar-24 13:34N 35°31' E 139°50'0 0.0
2017-Mar-24 12:27N 35°31' E 139°50'0 0.0
2017-Mar-24 11:33N 35°31' E 139°50'0 0.0
2017-Mar-24 10:31N 35°31' E 139°50'0 0.0
2017-Mar-24 09:33N 35°31' E 139°50'0 0.0
2017-Mar-24 08:33N 35°31' E 139°50'9 8.7
2017-Mar-24 07:33N 35°24' E 139°43'3 3.5
2017-Mar-24 06:33N 35°25' E 139°39'0 0.0
2017-Mar-24 05:33N 35°25' E 139°39'0 0.0
2017-Mar-24 04:33N 35°25' E 139°39'0 0.0
2017-Mar-24 03:33N 35°25' E 139°39'1 0.9
2017-Mar-24 02:33N 35°24' E 139°40'9 8.7
2017-Mar-24 01:34N 35°30' E 139°47'2 2.1
2017-Mar-24 00:33N 35°31' E 139°45'0 0.0
2017-Mar-23 23:33N 35°31' E 139°45'0 0.2
2017-Mar-23 22:33N 35°31' E 139°45'4 4.2
2017-Mar-23 21:32N 35°30' E 139°50'0 0.0
2017-Mar-23 20:32N 35°30' E 139°50'0 0.0
2017-Mar-23 19:32N 35°30' E 139°50'0 0.0
2017-Mar-23 18:32N 35°30' E 139°50'0 0.0
2017-Mar-23 17:32N 35°31' E 139°50'0 0.0
2017-Mar-23 16:32N 35°30' E 139°50'0 0.0
2017-Mar-23 15:20N 35°30' E 139°50'0 0.0
2017-Mar-23 14:32N 35°30' E 139°50'0 0.0
2017-Mar-23 13:32N 35°30' E 139°50'0 0.0
2017-Mar-23 12:11N 35°31' E 139°50'0 0.0
2017-Mar-23 11:32N 35°31' E 139°50'0 0.0
2017-Mar-23 10:32N 35°31' E 139°50'0 0.0
2017-Mar-23 09:29N 35°31' E 139°50'0 0.0
2017-Mar-23 08:32N 35°31' E 139°50'2 2.1
2017-Mar-23 07:33N 35°29' E 139°49'9 9.1
2017-Mar-23 06:34N 35°25' E 139°39'0 0.0
2017-Mar-23 05:33N 35°25' E 139°39'0 0.0
2017-Mar-23 04:34N 35°25' E 139°39'0 0.0
2017-Mar-23 03:33N 35°25' E 139°39'0 0.0
2017-Mar-23 02:33N 35°25' E 139°39'3 2.5
2017-Mar-23 01:31N 35°22' E 139°40'0 0.1
2017-Mar-23 00:32N 35°22' E 139°40'1010.4
2017-Mar-22 23:33N 35°14' E 139°47'24610.6
2017-Mar-22 00:17N 34°07' E 134°59'28 1.5
2017-Mar-21 05:33N 34°35' E 135°03'221 5.7
2017-Mar-19 14:33N 35°02' E 139°30'1312.9
2017-Mar-19 13:33N 35°08' E 139°43'1211.6
2017-Mar-19 12:33N 35°19' E 139°43'1111.4
2017-Mar-19 11:33N 35°29' E 139°51'6 1.2
2017-Mar-19 06:29N 35°32' E 139°57'1213.0
2017-Mar-19 05:33N 35°24' E 139°46'1211.9
2017-Mar-19 04:33N 35°12' E 139°47'1312.5
2017-Mar-19 03:33N 35°02' E 139°38'  

Dump ship's entire track history